Liberty Pride — KRAU — position and weather

sailwx.info

Track history (hours):
 
Tides and Currents Weather Stations Pressure Air Temp Water Temp Dewpoint Dewpoint Depression Visibility Wind Speed Wind Dir Waves Ship Positions

Liberty Pride

Owner: Liberty Pride Corporation, Lake Success, NY. More information available from US FCC via Universal Licensing System and Coast Guard Vessel Documentation Center.

Last reported at 2015-May-04 20:18 UTC. Time now 2015-May-05 03:10 UTC.
Position N 31°21' E 032°20'.

Length 200 m; draft 9.4 m.

Type: Cargo ship. MMSI: 368473000.

Date/timePositionNaut miles runAvg speedWind from/ knotsBaromVisibWave heightAir tempDewpointWater temp
2015-May-04 20:18N 31°21' E 032°20'178 4.6
2015-May-03 05:28N 34°15' E 033°08'1617.4
2015-May-03 04:33N 34°18' E 032°49'3617.6
2015-May-03 02:31N 34°25' E 032°06'5019.9
2015-May-03 00:00N 34°30' E 031°06'11718.1 220 / 41015.1 16.215.519.0
2015-May-02 17:31N 34°55' E 028°47'5618.8
2015-May-02 14:33N 35°06' E 027°40'1918.9
2015-May-02 13:33N 35°09' E 027°17'3618.1
2015-May-02 11:33N 35°19' E 026°35'1817.8
2015-May-02 10:32N 35°27' E 026°15'5217.3
2015-May-02 07:31N 35°41' E 025°13'3517.7
2015-May-02 05:33N 35°44' E 024°30'7117.7
2015-May-02 01:32N 35°45' E 023°03'35318.1
2015-May-01 06:00N 36°18' E 015°48'2416.4 030 / 41021.810.8 0.516.014.317.8
2015-May-01 04:33N 36°24' E 015°19'1818.4
2015-May-01 03:33N 36°26' E 014°57'1818.2
2015-May-01 02:33N 36°28' E 014°34'1818.4
2015-May-01 01:33N 36°38' E 014°15'1818.2
2015-May-01 00:33N 36°48' E 013°57'1323.1
2015-May-01 00:00N 36°54' E 013°42'614.6 300 / 51021.010.8 0.516.114.5
2015-Apr-30 23:33N 36°59' E 013°37'1918.9
2015-Apr-30 22:33N 37°09' E 013°17'1918.7
2015-Apr-30 21:32N 37°19' E 012°56'1818.2
2015-Apr-30 20:33N 37°21' E 012°34'2018.6
2015-Apr-30 19:29N 37°33' E 012°15'1818.7
2015-Apr-30 18:33N 37°47' E 012°01'915.9
2015-Apr-30 18:00N 37°54' E 011°54'1022.9 020 / 161022.110.8 0.516.012.417.9
2015-Apr-30 17:33N 38°04' E 011°51'2118.8
2015-Apr-30 16:26N 38°23' E 011°41'1818.9
2015-Apr-30 15:29N 38°40' E 011°34'1818.9
2015-Apr-30 14:32N 38°57' E 011°26'4718.6
2015-Apr-30 12:00N 39°42' E 011°06'20118.4 280 / 61022.110.8 0.519.010.717.0
2015-Apr-30 01:04N 42°56' E 009°57'1019.1
2015-Apr-30 00:33N 43°05' E 010°01'1818.5
2015-Apr-29 23:33N 43°23' E 010°08'1211.8
2015-Apr-29 22:33N 43°33' E 010°17'2 2.2
2015-Apr-29 21:31N 43°35' E 010°18'0 0.0
2015-Apr-29 20:31N 43°35' E 010°18'0 0.0
2015-Apr-29 19:31N 43°35' E 010°18'0 0.0
2015-Apr-29 18:31N 43°35' E 010°18'0 0.0
2015-Apr-29 17:31N 43°35' E 010°18'0 0.0
2015-Apr-29 16:33N 43°35' E 010°18'0 0.0
2015-Apr-29 15:33N 43°35' E 010°18'0 0.0
2015-Apr-29 14:33N 43°35' E 010°18'0 0.0
2015-Apr-29 13:33N 43°35' E 010°18'0 0.0
2015-Apr-29 12:33N 43°35' E 010°18'0 0.0
2015-Apr-29 11:33N 43°35' E 010°18'5 4.8
2015-Apr-29 10:33N 43°30' E 010°15'1 1.0
2015-Apr-29 09:33N 43°30' E 010°17'7 7.0
2015-Apr-29 08:33N 43°30' E 010°07'1313.2
2015-Apr-29 07:33N 43°30' E 009°49'1818.5
2015-Apr-29 06:33N 43°23' E 009°25'2118.8
2015-Apr-29 05:27N 43°15' E 008°59'10218.6
2015-Apr-29 00:00N 41°48' E 007°48'24413.6 300 / 251014.510.8 2.015.010.316.3
2015-Apr-28 06:00N 38°48' E 004°12'3018.2 300 / 71016.610.8 1.017.013.517.5
2015-Apr-28 04:22N 38°32' E 003°40'1519.0
2015-Apr-28 03:33N 38°24' E 003°24'2218.9
2015-Apr-28 02:24N 38°13' E 002°59'4920.3
2015-Apr-28 00:00N 37°48' E 002°06'6918.0 240 / 231015.6 0.516.515.717.6
2015-Apr-27 20:09N 37°14' E 000°50'1118.3
2015-Apr-27 19:32N 37°10' E 000°37'1919.0
2015-Apr-27 18:33N 37°04' E 000°15'1322.4
2015-Apr-27 18:00N 37°00' E 000°00'1216.5 290 / 301016.210.8 1.018.012.717.7
2015-Apr-27 17:17N 36°55' W 000°13'1419.3
2015-Apr-27 16:33N 36°51' W 000°30'2419.8
2015-Apr-27 15:20N 36°42' W 000°58'7918.7
2015-Apr-27 11:06N 36°18' W 002°32'1018.3
2015-Apr-27 10:33N 36°17' W 002°45'1918.3
2015-Apr-27 09:31N 36°13' W 003°08'9918.8
2015-Apr-27 04:15N 35°59' W 005°09'1622.7
2015-Apr-27 03:33N 35°57' W 005°28'  
Track history (hours):
 
Tides and Currents Weather Stations Pressure Air Temp Water Temp Dewpoint Dewpoint Depression Visibility Wind Speed Wind Dir Waves Ship Positions

Liberty Pride

Owner: Liberty Pride Corporation, Lake Success, NY. More information available from US FCC via Universal Licensing System and Coast Guard Vessel Documentation Center.

Last reported at 2015-May-04 20:18 UTC. Time now 2015-May-05 03:10 UTC.
Position N 31°21' E 032°20'.

Length 200 m; draft 9.4 m.

Type: Cargo ship. MMSI: 368473000.

Date/timePositionNaut miles runAvg speedWind from/ knotsBaromVisibWave heightAir tempDewpointWater temp
2015-May-04 20:18N 31°21' E 032°20'178 4.6
2015-May-03 05:28N 34°15' E 033°08'1617.4
2015-May-03 04:33N 34°18' E 032°49'3617.6
2015-May-03 02:31N 34°25' E 032°06'5019.9
2015-May-03 00:00N 34°30' E 031°06'11718.1 220 / 41015.1 16.215.519.0
2015-May-02 17:31N 34°55' E 028°47'5618.8
2015-May-02 14:33N 35°06' E 027°40'1918.9
2015-May-02 13:33N 35°09' E 027°17'3618.1
2015-May-02 11:33N 35°19' E 026°35'1817.8
2015-May-02 10:32N 35°27' E 026°15'5217.3
2015-May-02 07:31N 35°41' E 025°13'3517.7
2015-May-02 05:33N 35°44' E 024°30'7117.7
2015-May-02 01:32N 35°45' E 023°03'35318.1
2015-May-01 06:00N 36°18' E 015°48'2416.4 030 / 41021.810.8 0.516.014.317.8
2015-May-01 04:33N 36°24' E 015°19'1818.4
2015-May-01 03:33N 36°26' E 014°57'1818.2
2015-May-01 02:33N 36°28' E 014°34'1818.4
2015-May-01 01:33N 36°38' E 014°15'1818.2
2015-May-01 00:33N 36°48' E 013°57'1323.1
2015-May-01 00:00N 36°54' E 013°42'614.6 300 / 51021.010.8 0.516.114.5
2015-Apr-30 23:33N 36°59' E 013°37'1918.9
2015-Apr-30 22:33N 37°09' E 013°17'1918.7
2015-Apr-30 21:32N 37°19' E 012°56'1818.2
2015-Apr-30 20:33N 37°21' E 012°34'2018.6
2015-Apr-30 19:29N 37°33' E 012°15'1818.7
2015-Apr-30 18:33N 37°47' E 012°01'915.9
2015-Apr-30 18:00N 37°54' E 011°54'1022.9 020 / 161022.110.8 0.516.012.417.9
2015-Apr-30 17:33N 38°04' E 011°51'2118.8
2015-Apr-30 16:26N 38°23' E 011°41'1818.9
2015-Apr-30 15:29N 38°40' E 011°34'1818.9
2015-Apr-30 14:32N 38°57' E 011°26'4718.6
2015-Apr-30 12:00N 39°42' E 011°06'20118.4 280 / 61022.110.8 0.519.010.717.0
2015-Apr-30 01:04N 42°56' E 009°57'1019.1
2015-Apr-30 00:33N 43°05' E 010°01'1818.5
2015-Apr-29 23:33N 43°23' E 010°08'1211.8
2015-Apr-29 22:33N 43°33' E 010°17'2 2.2
2015-Apr-29 21:31N 43°35' E 010°18'0 0.0
2015-Apr-29 20:31N 43°35' E 010°18'0 0.0
2015-Apr-29 19:31N 43°35' E 010°18'0 0.0
2015-Apr-29 18:31N 43°35' E 010°18'0 0.0
2015-Apr-29 17:31N 43°35' E 010°18'0 0.0
2015-Apr-29 16:33N 43°35' E 010°18'0 0.0
2015-Apr-29 15:33N 43°35' E 010°18'0 0.0
2015-Apr-29 14:33N 43°35' E 010°18'0 0.0
2015-Apr-29 13:33N 43°35' E 010°18'0 0.0
2015-Apr-29 12:33N 43°35' E 010°18'0 0.0
2015-Apr-29 11:33N 43°35' E 010°18'5 4.8
2015-Apr-29 10:33N 43°30' E 010°15'1 1.0
2015-Apr-29 09:33N 43°30' E 010°17'7 7.0
2015-Apr-29 08:33N 43°30' E 010°07'1313.2
2015-Apr-29 07:33N 43°30' E 009°49'1818.5
2015-Apr-29 06:33N 43°23' E 009°25'2118.8
2015-Apr-29 05:27N 43°15' E 008°59'10218.6
2015-Apr-29 00:00N 41°48' E 007°48'24413.6 300 / 251014.510.8 2.015.010.316.3
2015-Apr-28 06:00N 38°48' E 004°12'3018.2 300 / 71016.610.8 1.017.013.517.5
2015-Apr-28 04:22N 38°32' E 003°40'1519.0
2015-Apr-28 03:33N 38°24' E 003°24'2218.9
2015-Apr-28 02:24N 38°13' E 002°59'4920.3
2015-Apr-28 00:00N 37°48' E 002°06'6918.0 240 / 231015.6 0.516.515.717.6
2015-Apr-27 20:09N 37°14' E 000°50'1118.3
2015-Apr-27 19:32N 37°10' E 000°37'1919.0
2015-Apr-27 18:33N 37°04' E 000°15'1322.4
2015-Apr-27 18:00N 37°00' E 000°00'1216.5 290 / 301016.210.8 1.018.012.717.7
2015-Apr-27 17:17N 36°55' W 000°13'1419.3
2015-Apr-27 16:33N 36°51' W 000°30'2419.8
2015-Apr-27 15:20N 36°42' W 000°58'7918.7
2015-Apr-27 11:06N 36°18' W 002°32'1018.3
2015-Apr-27 10:33N 36°17' W 002°45'1918.3
2015-Apr-27 09:31N 36°13' W 003°08'9918.8
2015-Apr-27 04:15N 35°59' W 005°09'1622.7
2015-Apr-27 03:33N 35°57' W 005°28'  

Dump ship's entire track history